CheckWX is a tool to help pilots better visualize weather data.  It is not intended as a substitute for an official pre-flight weather briefing.

21:08:23 UTC

EDHI METAR
Hamburg-Finkenwerder Airport
Hamburg, Germany
Current

18 mins ago

EDHI 232050Z AUTO 13003KT 090V150 9999 // NCD 02/M05 Q1039
Observed
Feb-23 @ 20:50 UTC
Wind
  • 130° at 3 KTS
Visibility
10,000+ meters
Flight Rules
VFR
Cloud Levels
  • Clear skies
Temperature
C / 36°F
Dewpoint
-5°C / 23°F
Humidity
60%
Altimeter
30.68" Hg
Pressure
1038.91 hPa
Previous

48 mins ago

EDHI 232020Z AUTO 14004KT 090V180 9999 // NCD 03/M05 Q1039
Observed
Feb-23 @ 20:20 UTC
Wind
  • 140° at 4 KTS
Visibility
10,000+ meters
Flight Rules
VFR
Cloud Levels
  • Clear skies
Temperature
C / 37°F
Dewpoint
-5°C / 23°F
Humidity
56%
Altimeter
30.68" Hg
Pressure
1038.91 hPa
Previous

1 hour ago

EDHI 231950Z AUTO 13004KT 9999 // NCD 04/M04 Q1039
Observed
Feb-23 @ 19:50 UTC
Wind
  • 130° at 4 KTS
Visibility
10,000+ meters
Flight Rules
VFR
Cloud Levels
  • Clear skies
Temperature
C / 39°F
Dewpoint
-4°C / 25°F
Humidity
56%
Altimeter
30.68" Hg
Pressure
1038.91 hPa